Time;durP1;ratioP1;P1;durP2;ratioP2;P2;SDS_P1;SDS_P2;PMS_P1;PMS_P2;Temp;Humidity;BMP_temperature;BMP_pressure;BME280_temperature;BME280_humidity;BME280_pressure;Samples;Min_cycle;Max_cycle;Signal;HPM_P1;HPM_P2
2022/09/04 00:02:40;;;;;;;3.25;1.60;;;17.90;79.50;;;;;;6255759;22;20012;-81
2022/09/04 00:05:40;;;;;;;3.90;1.42;;;17.90;79.60;;;;;;6280813;22;20476;-80
2022/09/04 00:08:28;;;;;;;3.72;1.90;;;17.90;79.50;;;;;;6254783;22;20018;-81
2022/09/04 00:10:59;;;;;;;5.35;1.70;;;17.80;79.50;;;;;;6254636;22;20011;-80
2022/09/04 00:13:43;;;;;;;3.25;1.58;;;17.80;79.60;;;;;;6254391;22;20015;-81
2022/09/04 00:16:22;;;;;;;4.30;1.52;;;17.80;79.60;;;;;;6280750;22;20391;-80
2022/09/04 00:18:58;;;;;;;2.97;1.58;;;17.80;79.90;;;;;;6280503;22;20014;-80
2022/09/04 00:21:40;;;;;;;3.42;1.70;;;17.70;80.00;;;;;;6256436;22;20445;-81
2022/09/04 00:24:31;;;;;;;8.13;1.70;;;17.70;80.00;;;;;;6256382;22;20464;-80
2022/09/04 00:27:00;;;;;;;5.00;1.48;;;17.70;80.00;;;;;;6239132;22;20011;-80
2022/09/04 00:29:53;;;;;;;9.00;1.70;;;17.60;80.20;;;;;;6256169;22;20053;-80
2022/09/04 00:32:24;;;;;;;4.75;1.70;;;17.60;80.30;;;;;;6255891;22;20076;-81
2022/09/04 00:35:04;;;;;;;3.45;1.50;;;17.60;80.30;;;;;;6256485;22;20007;-80
2022/09/04 00:37:59;;;;;;;2.20;1.50;;;17.50;80.30;;;;;;6281098;22;20030;-80
2022/09/04 00:40:31;;;;;;;3.20;1.80;;;17.50;80.30;;;;;;6252045;22;20007;-81
2022/09/04 00:43:12;;;;;;;5.72;1.90;;;17.50;80.40;;;;;;6251052;22;20020;-80
2022/09/04 00:45:57;;;;;;;5.40;1.30;;;17.40;80.50;;;;;;6250324;22;20117;-81
2022/09/04 00:48:30;;;;;;;4.70;1.70;;;17.30;80.50;;;;;;6250620;22;20015;-80
2022/09/04 00:51:14;;;;;;;4.65;1.70;;;17.40;80.60;;;;;;6250782;22;20106;-80
2022/09/04 00:53:59;;;;;;;5.40;2.13;;;17.30;80.50;;;;;;6276470;22;20054;-79
2022/09/04 00:57:12;;;;;;;2.20;1.40;;;17.30;80.70;;;;;;6277251;22;20106;-80
2022/09/04 01:00:04;;;;;;;3.05;1.63;;;17.30;80.50;;;;;;6135077;23;20017;-80
2022/09/04 01:02:58;;;;;;;7.32;1.70;;;17.20;80.60;;;;;;6250772;22;20377;-80
2022/09/04 01:05:39;;;;;;;2.75;1.60;;;17.20;80.90;;;;;;6251793;22;20038;-80
2022/09/04 01:08:14;;;;;;;2.55;1.30;;;17.20;81.00;;;;;;6251022;22;20015;-80
2022/09/04 01:11:04;;;;;;;2.92;1.60;;;17.10;81.00;;;;;;6251324;22;20012;-80
2022/09/04 01:13:46;;;;;;;3.92;1.70;;;17.10;81.00;;;;;;6276736;22;20047;-80
2022/09/04 01:16:25;;;;;;;4.85;1.65;;;17.10;81.20;;;;;;6250587;22;20454;-80
2022/09/04 01:19:07;;;;;;;3.85;1.60;;;17.10;81.30;;;;;;6252310;22;20008;-80
2022/09/04 01:22:07;;;;;;;5.30;1.58;;;17.10;81.50;;;;;;6275604;22;20008;-80
2022/09/04 01:24:35;;;;;;;3.47;1.77;;;17.00;81.50;;;;;;6274975;22;20056;-80
2022/09/04 01:27:09;;;;;;;3.47;1.60;;;17.00;81.80;;;;;;6249481;22;20012;-80
2022/09/04 01:29:58;;;;;;;3.30;1.85;;;17.00;81.80;;;;;;6249090;22;20103;-80
2022/09/04 01:32:56;;;;;;;3.70;1.83;;;16.90;81.80;;;;;;6250844;22;20011;-80
2022/09/04 01:35:43;;;;;;;5.10;1.63;;;16.90;81.70;;;;;;6252793;22;20031;-80
2022/09/04 01:38:15;;;;;;;3.15;1.52;;;16.90;81.70;;;;;;6277127;22;20333;-80
2022/09/04 01:41:00;;;;;;;3.03;1.80;;;16.90;81.70;;;;;;6279944;22;20008;-81
2022/09/04 01:43:26;;;;;;;4.10;1.60;;;16.90;82.30;;;;;;6253896;22;20016;-81
2022/09/04 01:46:09;;;;;;;3.40;1.40;;;16.80;81.60;;;;;;6228842;22;20016;-80
2022/09/04 01:48:38;;;;;;;4.80;1.58;;;16.80;81.80;;;;;;6253464;22;20018;-79
2022/09/04 01:51:33;;;;;;;3.58;1.77;;;16.80;81.90;;;;;;6252953;22;20027;-80
2022/09/04 01:54:22;;;;;;;3.15;1.80;;;16.80;82.10;;;;;;6255865;22;20019;-80
2022/09/04 01:57:29;;;;;;;3.90;1.55;;;16.80;82.20;;;;;;6252700;22;20384;-80
2022/09/04 02:00:05;;;;;;;2.80;1.73;;;16.70;82.20;;;;;;6230746;22;20019;-79
2022/09/04 02:02:34;;;;;;;2.85;1.85;;;16.70;82.30;;;;;;6252935;22;20442;-79
2022/09/04 02:05:16;;;;;;;4.40;1.75;;;16.70;82.40;;;;;;6278507;22;20015;-80
2022/09/04 02:07:51;;;;;;;8.30;1.88;;;16.70;82.70;;;;;;6250466;22;20016;-79
2022/09/04 02:10:45;;;;;;;3.15;1.77;;;16.60;82.60;;;;;;6251849;22;20255;-79
2022/09/04 02:13:28;;;;;;;3.88;2.10;;;16.60;82.80;;;;;;6214909;22;20015;-79
2022/09/04 02:16:21;;;;;;;2.65;2.00;;;16.60;82.80;;;;;;6251009;22;20429;-79
2022/09/04 02:19:16;;;;;;;3.80;1.70;;;16.60;83.10;;;;;;6251651;22;20022;-79
2022/09/04 02:22:05;;;;;;;6.00;2.03;;;16.50;83.10;;;;;;6251485;22;20094;-79
2022/09/04 02:25:05;;;;;;;2.53;1.80;;;16.50;83.20;;;;;;6252098;22;20007;-81
2022/09/04 02:27:55;;;;;;;4.70;1.90;;;16.40;83.30;;;;;;6251850;22;20035;-80
2022/09/04 02:30:21;;;;;;;5.38;2.00;;;16.40;83.40;;;;;;6251585;22;20012;-79
2022/09/04 02:33:09;;;;;;;3.53;2.10;;;16.40;83.60;;;;;;6277167;22;20101;-80
2022/09/04 02:35:40;;;;;;;2.85;1.55;;;16.30;83.80;;;;;;6252528;22;20341;-80
2022/09/04 02:38:37;;;;;;;3.35;2.03;;;16.30;84.00;;;;;;6250733;22;20007;-80
2022/09/04 02:41:25;;;;;;;3.00;2.10;;;16.30;84.00;;;;;;6277329;22;20011;-80
2022/09/04 02:44:15;;;;;;;5.15;1.90;;;16.20;84.10;;;;;;6251568;22;20015;-80
2022/09/04 02:47:04;;;;;;;11.55;2.72;;;16.20;84.00;;;;;;6250620;22;20620;-80
2022/09/04 02:49:47;;;;;;;4.50;2.00;;;16.20;84.30;;;;;;6250950;22;20018;-80
2022/09/04 02:52:42;;;;;;;5.05;2.00;;;16.10;84.30;;;;;;6251481;22;20016;-80
2022/09/04 02:55:17;;;;;;;4.07;1.90;;;16.10;84.30;;;;;;6276945;22;20011;-80
2022/09/04 02:57:58;;;;;;;4.88;1.95;;;16.10;84.50;;;;;;6251496;22;20054;-80
2022/09/04 03:00:53;;;;;;;3.20;2.15;;;16.00;84.70;;;;;;6277000;22;20019;-79
2022/09/04 03:03:42;;;;;;;4.07;2.05;;;16.00;84.70;;;;;;6212828;22;20090;-80
2022/09/04 03:06:12;;;;;;;5.68;1.98;;;16.00;85.00;;;;;;6276612;22;20069;-79
2022/09/04 03:08:46;;;;;;;4.72;1.88;;;16.00;85.00;;;;;;6276759;22;20019;-80
2022/09/04 03:11:30;;;;;;;4.28;2.05;;;16.00;85.30;;;;;;6277589;22;20008;-80
2022/09/04 03:14:12;;;;;;;4.78;2.10;;;15.90;85.30;;;;;;6251672;22;20433;-80
2022/09/04 03:16:44;;;;;;;4.38;2.10;;;15.90;85.20;;;;;;6277412;22;20019;-80
2022/09/04 03:19:48;;;;;;;2.95;2.05;;;15.90;85.40;;;;;;6250141;22;20073;-80
2022/09/04 03:22:28;;;;;;;4.63;2.28;;;15.90;85.40;;;;;;6251498;22;20016;-80
2022/09/04 03:25:22;;;;;;;3.05;1.90;;;15.80;85.70;;;;;;6251958;22;20019;-81
2022/09/04 03:27:48;;;;;;;3.35;2.00;;;15.80;85.80;;;;;;6276890;22;20341;-80
2022/09/04 03:30:14;;;;;;;3.63;2.17;;;15.80;86.10;;;;;;6251512;22;20016;-80
2022/09/04 03:33:13;;;;;;;4.28;2.15;;;15.70;86.20;;;;;;6251674;22;20035;-80
2022/09/04 03:35:48;;;;;;;4.10;2.08;;;15.70;86.30;;;;;;6276869;22;20008;-80
2022/09/04 03:38:36;;;;;;;9.60;2.45;;;15.70;86.50;;;;;;6250438;22;20015;-80
2022/09/04 03:41:44;;;;;;;4.35;2.20;;;15.70;86.50;;;;;;6250369;22;20008;-80
2022/09/04 03:44:37;;;;;;;3.30;2.03;;;15.70;86.60;;;;;;6252130;22;20054;-80
2022/09/04 03:47:36;;;;;;;3.05;2.05;;;15.60;86.70;;;;;;6252313;22;20661;-79
2022/09/04 03:50:20;;;;;;;3.03;2.00;;;15.60;87.00;;;;;;6251890;22;20011;-79
2022/09/04 03:53:15;;;;;;;2.83;1.92;;;15.60;87.20;;;;;;6249415;22;20711;-80
2022/09/04 03:56:12;;;;;;;2.60;1.83;;;15.60;87.40;;;;;;6250828;22;20012;-80
2022/09/04 03:58:56;;;;;;;9.50;2.35;;;15.50;87.90;;;;;;6252468;22;20086;-80
2022/09/04 04:01:49;;;;;;;3.83;2.20;;;15.50;87.80;;;;;;6276836;22;20398;-80
2022/09/04 04:04:42;;;;;;;4.30;2.35;;;15.50;88.00;;;;;;6250981;22;20012;-80
2022/09/04 04:07:20;;;;;;;3.47;2.30;;;15.50;88.00;;;;;;6276073;22;20446;-80
2022/09/04 04:09:46;;;;;;;3.40;2.53;;;15.50;88.50;;;;;;6251028;22;20016;-79
2022/09/04 04:12:17;;;;;;;5.18;2.67;;;15.40;88.30;;;;;;6249636;22;20015;-79
2022/09/04 04:14:52;;;;;;;2.20;1.90;;;15.40;88.40;;;;;;6250367;22;20008;-79
2022/09/04 04:17:40;;;;;;;3.03;2.13;;;15.40;88.60;;;;;;6250081;22;20018;-80
2022/09/04 04:20:26;;;;;;;4.65;2.53;;;15.40;88.50;;;;;;6276190;22;20012;-80
2022/09/04 04:23:16;;;;;;;3.83;2.20;;;15.30;88.70;;;;;;6250047;22;20015;-80
2022/09/04 04:25:47;;;;;;;3.33;2.03;;;15.30;88.70;;;;;;6250990;22;20454;-80
2022/09/04 04:28:31;;;;;;;5.18;2.63;;;15.30;88.80;;;;;;6277113;22;20023;-80
2022/09/04 04:31:21;;;;;;;3.80;2.30;;;15.30;89.00;;;;;;6278061;22;20022;-79
2022/09/04 04:34:05;;;;;;;5.25;2.70;;;15.30;89.00;;;;;;6255750;22;20015;-79
2022/09/04 04:36:40;;;;;;;3.67;2.13;;;15.20;89.10;;;;;;6255235;22;20323;-80
2022/09/04 04:39:24;;;;;;;6.68;2.40;;;15.30;89.40;;;;;;6253373;22;20087;-80
2022/09/04 04:42:16;;;;;;;3.97;2.50;;;15.20;89.30;;;;;;6275119;22;20090;-80
2022/09/04 04:48:30;;;;;;;3.53;2.30;;;15.10;89.50;;;;;;6277610;22;20446;-80
2022/09/04 04:50:56;;;;;;;4.35;2.38;;;15.10;89.80;;;;;;6237053;22;20074;-79
2022/09/04 04:53:31;;;;;;;6.60;2.47;;;15.10;89.80;;;;;;6276344;22;20446;-79
2022/09/04 04:56:13;;;;;;;3.17;2.42;;;15.10;90.20;;;;;;6275995;22;20016;-79
2022/09/04 04:58:47;;;;;;;6.10;2.60;;;15.00;90.00;;;;;;6275003;22;20090;-79
2022/09/04 05:01:38;;;;;;;3.92;2.45;;;15.00;90.40;;;;;;6249270;22;20080;-79
2022/09/04 05:04:10;;;;;;;3.45;2.38;;;15.00;90.10;;;;;;6251680;22;20012;-79
2022/09/04 05:06:52;;;;;;;6.57;2.40;;;15.00;90.20;;;;;;6251883;22;20011;-79
2022/09/04 05:09:38;;;;;;;4.85;2.40;;;15.00;90.50;;;;;;6250600;22;20077;-79
2022/09/04 05:12:19;;;;;;;6.40;2.70;;;15.00;90.30;;;;;;6250767;22;20050;-80
2022/09/04 05:15:07;;;;;;;3.08;2.38;;;15.00;90.40;;;;;;6251345;22;20015;-79
2022/09/04 05:17:37;;;;;;;4.32;2.60;;;14.90;90.40;;;;;;6278311;22;20016;-80
2022/09/04 05:20:28;;;;;;;4.88;2.38;;;14.90;90.40;;;;;;6252634;22;20012;-80
2022/09/04 05:23:18;;;;;;;4.97;2.25;;;14.90;90.60;;;;;;6253107;22;20022;-80
2022/09/04 05:26:01;;;;;;;6.15;2.83;;;15.00;90.60;;;;;;6252676;22;20047;-80
2022/09/04 05:28:54;;;;;;;7.25;2.40;;;14.90;90.80;;;;;;6253181;22;20015;-80
2022/09/04 05:31:51;;;;;;;4.93;2.55;;;15.00;90.60;;;;;;6252067;22;20019;-80
2022/09/04 05:34:35;;;;;;;5.68;2.65;;;15.00;90.60;;;;;;6276834;22;20016;-80
2022/09/04 05:37:32;;;;;;;8.18;3.00;;;15.00;90.60;;;;;;6252553;22;20018;-80
2022/09/04 05:40:03;;;;;;;9.30;2.70;;;15.00;90.60;;;;;;6277322;22;20086;-80
2022/09/04 05:42:54;;;;;;;4.53;2.40;;;15.00;91.00;;;;;;6252322;22;20454;-80
2022/09/04 05:45:43;;;;;;;3.78;2.72;;;15.00;90.80;;;;;;6251935;22;20020;-80
2022/09/04 05:48:30;;;;;;;5.57;2.80;;;15.00;90.90;;;;;;6276093;22;20016;-79
2022/09/04 05:51:36;;;;;;;3.10;2.55;;;15.10;91.00;;;;;;6276656;22;20039;-79
2022/09/04 05:54:21;;;;;;;5.13;2.50;;;15.10;90.90;;;;;;6252214;22;20386;-80
2022/09/04 05:57:12;;;;;;;4.38;2.60;;;15.10;91.00;;;;;;6251300;22;20121;-79
2022/09/04 06:00:07;;;;;;;5.75;2.70;;;15.10;91.10;;;;;;6252001;22;20015;-79
2022/09/04 06:03:16;;;;;;;5.63;2.90;;;15.20;91.10;;;;;;6252219;22;20062;-79
2022/09/04 06:06:06;;;;;;;3.67;2.65;;;15.10;91.20;;;;;;6251666;22;20598;-79
2022/09/04 06:08:58;;;;;;;5.38;2.50;;;15.20;91.40;;;;;;6276044;22;20454;-78
2022/09/04 06:11:34;;;;;;;3.17;2.50;;;15.20;91.50;;;;;;6276995;22;20022;-80
2022/09/04 06:14:18;;;;;;;7.85;3.17;;;15.20;91.60;;;;;;6251493;22;20008;-80
2022/09/04 06:16:50;;;;;;;6.82;2.80;;;15.20;91.60;;;;;;6250847;22;20012;-80
2022/09/04 06:19:31;;;;;;;5.22;2.80;;;15.20;91.80;;;;;;6251090;22;20089;-78
2022/09/04 06:22:27;;;;;;;5.20;2.92;;;15.30;91.80;;;;;;6251801;22;20016;-79
2022/09/04 06:25:04;;;;;;;6.78;2.65;;;15.30;91.90;;;;;;6250761;22;20096;-78
2022/09/04 06:27:55;;;;;;;4.97;2.78;;;15.30;92.10;;;;;;6277293;22;20088;-80
2022/09/04 06:30:25;;;;;;;6.38;2.70;;;15.30;92.10;;;;;;6276132;22;20527;-80
2022/09/04 06:33:09;;;;;;;4.20;2.65;;;15.30;92.20;;;;;;6226101;22;20508;-81
2022/09/04 06:35:42;;;;;;;6.35;3.10;;;15.30;92.30;;;;;;6251667;22;20012;-79
2022/09/04 06:38:39;;;;;;;8.45;2.85;;;15.40;92.40;;;;;;6251225;22;20061;-79
2022/09/04 06:41:24;;;;;;;3.65;2.92;;;15.50;92.40;;;;;;6251343;22;20043;-79
2022/09/04 06:43:59;;;;;;;4.90;2.60;;;15.50;92.50;;;;;;6252254;22;20019;-80
2022/09/04 06:46:52;;;;;;;3.78;2.78;;;15.60;92.60;;;;;;6277874;22;20012;-80
2022/09/04 06:49:28;;;;;;;8.85;2.90;;;15.60;92.50;;;;;;6277044;22;20567;-79
2022/09/04 06:52:06;;;;;;;6.55;2.70;;;15.70;92.60;;;;;;6277039;22;20020;-79
2022/09/04 06:54:50;;;;;;;3.35;2.47;;;15.80;92.60;;;;;;6252293;22;20429;-81
2022/09/04 06:57:34;;;;;;;4.43;2.95;;;15.90;92.50;;;;;;6278954;22;20018;-81
2022/09/04 07:00:13;;;;;;;4.55;2.72;;;16.00;92.50;;;;;;6252284;22;20018;-79
2022/09/04 07:02:58;;;;;;;3.72;2.88;;;16.20;92.30;;;;;;6252505;22;20047;-79
2022/09/04 07:05:24;;;;;;;8.48;2.85;;;16.40;92.30;;;;;;6251917;22;20098;-79
2022/09/04 07:08:15;;;;;;;3.50;2.80;;;16.70;92.10;;;;;;6252375;22;20039;-79
2022/09/04 07:10:51;;;;;;;5.07;2.60;;;17.10;92.00;;;;;;6275990;22;20015;-79
2022/09/04 07:13:36;;;;;;;6.13;2.78;;;17.50;91.70;;;;;;6250225;22;20047;-80
2022/09/04 07:16:25;;;;;;;4.63;2.45;;;17.70;91.30;;;;;;6251761;22;20342;-79
2022/09/04 07:19:20;;;;;;;4.30;2.60;;;18.00;91.30;;;;;;6251145;22;20011;-80
2022/09/04 07:22:05;;;;;;;3.35;2.60;;;18.20;91.10;;;;;;6277775;22;20338;-79
2022/09/04 07:25:02;;;;;;;6.43;2.65;;;18.40;91.00;;;;;;6251600;22;20015;-79
2022/09/04 07:27:47;;;;;;;5.13;2.47;;;18.70;90.80;;;;;;6276363;22;20461;-79
2022/09/04 07:30:15;;;;;;;11.65;3.50;;;18.90;90.50;;;;;;6249010;22;20047;-80
2022/09/04 07:33:13;;;;;;;3.72;2.45;;;19.10;90.30;;;;;;6249964;22;20018;-79
2022/09/04 07:35:47;;;;;;;3.97;3.05;;;19.30;90.00;;;;;;6251238;22;20012;-79
2022/09/04 07:38:45;;;;;;;3.95;2.60;;;19.40;89.90;;;;;;6250696;22;20043;-80
2022/09/04 07:41:18;;;;;;;3.58;2.65;;;19.60;89.90;;;;;;6253277;22;20008;-79
2022/09/04 07:44:14;;;;;;;4.40;2.70;;;19.70;90.00;;;;;;6276819;22;20045;-80
2022/09/04 07:47:15;;;;;;;6.07;3.47;;;19.90;89.50;;;;;;6251225;22;20015;-79
2022/09/04 07:49:48;;;;;;;8.10;3.05;;;20.00;89.80;;;;;;6277545;22;20023;-81
2022/09/04 07:52:40;;;;;;;8.35;2.97;;;20.10;90.00;;;;;;6251284;22;20043;-81
2022/09/04 07:55:41;;;;;;;6.18;2.90;;;20.20;89.70;;;;;;6252998;22;20153;-79
2022/09/04 07:58:30;;;;;;;5.72;3.35;;;20.30;89.50;;;;;;6212052;22;20015;-79
2022/09/04 08:00:58;;;;;;;4.05;2.80;;;20.40;89.20;;;;;;6278961;22;20011;-78
2022/09/04 08:03:54;;;;;;;7.20;2.80;;;20.40;89.40;;;;;;6279798;22;20011;-80
2022/09/04 08:06:44;;;;;;;6.88;2.58;;;20.40;89.70;;;;;;6252084;22;20023;-79
2022/09/04 08:09:32;;;;;;;4.80;2.85;;;20.40;90.30;;;;;;6250822;22;20022;-79
2022/09/04 08:12:24;;;;;;;5.70;3.17;;;20.30;90.10;;;;;;6251881;22;20019;-79
2022/09/04 08:14:54;;;;;;;5.00;2.90;;;20.30;90.20;;;;;;6277056;22;20012;-79
2022/09/04 08:18:07;;;;;;;5.60;2.72;;;20.30;90.60;;;;;;6278177;22;20434;-79
2022/09/04 08:20:33;;;;;;;4.72;3.63;;;20.30;90.70;;;;;;6241862;22;20118;-79
2022/09/04 08:23:17;;;;;;;5.07;3.47;;;20.30;90.80;;;;;;6277614;22;20023;-79
2022/09/04 08:26:13;;;;;;;9.10;3.42;;;20.40;90.70;;;;;;6252208;22;20012;-79
2022/09/04 08:28:47;;;;;;;6.28;3.53;;;20.40;91.00;;;;;;6250353;22;20575;-79
2022/09/04 08:31:23;;;;;;;5.30;3.40;;;20.40;90.90;;;;;;6274447;22;20039;-79
2022/09/04 08:34:07;;;;;;;8.55;4.10;;;20.40;90.90;;;;;;6275781;22;20015;-79
2022/09/04 08:36:58;;;;;;;7.75;4.72;;;20.50;91.30;;;;;;6252071;22;20012;-79
2022/09/04 08:39:34;;;;;;;6.85;3.88;;;20.50;91.50;;;;;;6250835;22;20137;-79
2022/09/04 08:42:24;;;;;;;6.28;3.95;;;20.50;91.60;;;;;;6277487;22;20090;-79
2022/09/04 08:45:17;;;;;;;7.25;4.30;;;20.50;91.60;;;;;;6250364;22;20026;-79
2022/09/04 08:47:52;;;;;;;8.35;4.30;;;20.50;91.60;;;;;;6251722;22;20011;-79
2022/09/04 08:50:26;;;;;;;8.17;4.03;;;20.60;91.80;;;;;;6251750;22;20023;-80
2022/09/04 08:53:14;;;;;;;7.82;4.63;;;20.60;92.00;;;;;;6250632;22;20011;-80
2022/09/04 08:56:08;;;;;;;6.60;4.78;;;20.70;91.80;;;;;;6252086;22;20015;-80
2022/09/04 08:58:53;;;;;;;6.53;4.68;;;20.80;91.50;;;;;;6251185;22;20022;-80
2022/09/04 09:01:37;;;;;;;7.85;5.00;;;20.80;91.40;;;;;;6276347;22;20043;-79
2022/09/04 09:04:38;;;;;;;6.05;4.53;;;20.90;91.60;;;;;;6251116;22;20449;-80
2022/09/04 09:07:22;;;;;;;8.57;4.90;;;20.90;91.70;;;;;;6250713;22;20473;-79
2022/09/04 09:10:32;;;;;;;8.68;4.85;;;20.90;91.80;;;;;;6249600;22;20481;-79
2022/09/04 09:13:26;;;;;;;5.13;4.05;;;21.00;92.00;;;;;;6249521;22;20346;-80
2022/09/04 09:16:42;;;;;;;12.00;5.10;;;21.00;92.20;;;;;;6250058;22;20489;-79
2022/09/04 09:19:32;;;;;;;7.32;5.00;;;21.10;92.30;;;;;;6211987;22;20467;-80
2022/09/04 09:22:11;;;;;;;6.50;4.90;;;21.20;92.30;;;;;;6231941;22;20015;-79
2022/09/04 09:25:14;;;;;;;9.43;4.88;;;21.20;92.40;;;;;;6276021;22;20012;-79
2022/09/04 09:28:01;;;;;;;7.03;4.50;;;21.20;92.40;;;;;;6275318;22;20509;-78
2022/09/04 09:30:49;;;;;;;4.65;3.90;;;21.30;92.50;;;;;;6276736;22;20090;-80
2022/09/04 09:33:42;;;;;;;8.23;3.83;;;21.40;92.70;;;;;;6249398;22;20011;-82
2022/09/04 09:36:50;;;;;;;6.93;3.90;;;21.50;92.70;;;;;;6277644;22;20018;-81
2022/09/04 09:39:52;;;;;;;4.97;3.72;;;21.60;92.80;;;;;;6252832;22;20008;-80
2022/09/04 09:42:37;;;;;;;4.30;3.90;;;21.80;92.60;;;;;;6253703;22;20341;-80
2022/09/04 09:45:24;;;;;;;3.95;3.42;;;21.90;92.30;;;;;;6280158;22;20019;-79
2022/09/04 09:48:08;;;;;;;7.50;4.22;;;21.90;92.60;;;;;;6281402;22;20124;-79
2022/09/04 09:50:59;;;;;;;5.53;3.90;;;22.00;92.20;;;;;;6256512;22;20026;-80
2022/09/04 09:53:25;;;;;;;6.70;3.92;;;22.10;92.20;;;;;;6281156;22;20022;-80
2022/09/04 09:55:57;;;;;;;4.57;3.72;;;22.10;92.30;;;;;;6255400;22;20011;-79
2022/09/04 09:58:44;;;;;;;7.07;4.22;;;22.20;92.20;;;;;;6255486;22;20448;-79
2022/09/04 10:01:31;;;;;;;6.57;3.60;;;22.30;92.00;;;;;;6257770;22;20529;-79
2022/09/04 10:04:20;;;;;;;7.47;3.58;;;22.30;92.00;;;;;;6257377;22;20015;-79
2022/09/04 10:07:12;;;;;;;6.20;3.40;;;22.50;92.20;;;;;;6282776;22;20018;-79
2022/09/04 10:09:58;;;;;;;7.68;3.38;;;22.50;92.00;;;;;;6257646;22;20011;-79
2022/09/04 10:12:56;;;;;;;7.30;3.92;;;22.60;92.20;;;;;;6284363;22;20015;-81
2022/09/04 10:15:28;;;;;;;5.93;3.38;;;22.70;91.90;;;;;;6231768;22;20090;-80
2022/09/04 10:17:56;;;;;;;4.40;3.20;;;22.70;92.00;;;;;;6280154;22;20007;-79
2022/09/04 10:20:52;;;;;;;11.80;3.63;;;22.80;92.20;;;;;;6281655;22;20007;-80
2022/09/04 10:24:05;;;;;;;4.60;3.40;;;22.90;91.90;;;;;;6259161;22;20022;-80
2022/09/04 10:26:43;;;;;;;3.90;3.45;;;23.00;91.90;;;;;;6257948;22;20090;-79
2022/09/04 10:29:27;;;;;;;5.90;3.72;;;23.00;91.90;;;;;;6256385;22;20043;-80
2022/09/04 10:32:11;;;;;;;6.72;3.75;;;23.00;92.00;;;;;;6256136;22;20011;-80
2022/09/04 10:35:02;;;;;;;4.07;3.50;;;23.00;91.80;;;;;;6282951;22;20007;-80
2022/09/04 10:37:55;;;;;;;5.85;4.00;;;23.10;91.80;;;;;;6282717;22;20007;-80
2022/09/04 10:40:36;;;;;;;4.78;3.50;;;23.10;91.70;;;;;;6281748;22;20105;-80
2022/09/04 10:43:19;;;;;;;4.05;3.50;;;23.20;91.80;;;;;;6276271;22;20020;-80
2022/09/04 10:46:16;;;;;;;7.18;3.70;;;23.20;91.80;;;;;;6252605;22;20024;-81
2022/09/04 10:48:57;;;;;;;5.05;3.47;;;23.20;91.60;;;;;;6253040;22;20051;-80
2022/09/04 10:51:33;;;;;;;5.05;3.60;;;23.20;91.70;;;;;;6252997;22;20015;-80
2022/09/04 10:54:17;;;;;;;3.97;3.22;;;23.20;92.00;;;;;;6252936;22;20012;-80
2022/09/04 10:57:06;;;;;;;6.18;3.00;;;23.30;92.00;;;;;;6278500;22;20011;-80
2022/09/04 10:59:56;;;;;;;4.07;3.67;;;23.40;92.10;;;;;;6252601;22;20098;-80
2022/09/04 11:02:40;;;;;;;5.03;3.70;;;23.60;91.60;;;;;;6278161;22;20012;-80
2022/09/04 11:05:43;;;;;;;3.80;2.80;;;23.60;91.50;;;;;;6252014;22;20020;-80
2022/09/04 11:08:54;;;;;;;4.53;3.17;;;23.60;91.80;;;;;;6277632;22;20023;-80
2022/09/04 11:11:51;;;;;;;4.18;3.38;;;23.70;91.80;;;;;;6245897;22;20015;-80
2022/09/04 11:14:35;;;;;;;4.45;3.28;;;23.70;91.40;;;;;;6252033;22;20408;-80
2022/09/04 11:17:10;;;;;;;3.97;3.08;;;23.70;91.50;;;;;;6251151;22;20446;-80
2022/09/04 11:20:11;;;;;;;3.63;2.70;;;23.70;91.50;;;;;;6277369;22;20462;-80
2022/09/04 11:22:58;;;;;;;4.30;3.67;;;23.80;91.50;;;;;;6251424;22;20043;-79
2022/09/04 11:25:52;;;;;;;4.85;3.67;;;23.90;91.30;;;;;;6276954;22;20102;-79
2022/09/04 11:28:43;;;;;;;4.78;2.92;;;24.00;91.00;;;;;;6252318;22;20357;-80
2022/09/04 11:31:54;;;;;;;4.00;2.40;;;24.00;91.00;;;;;;6276978;22;20035;-79
2022/09/04 11:34:32;;;;;;;4.95;3.63;;;24.10;91.20;;;;;;6245708;22;20446;-79
2022/09/04 11:37:27;;;;;;;5.38;3.75;;;24.10;90.80;;;;;;6276108;22;20342;-80
2022/09/04 11:40:13;;;;;;;4.47;3.22;;;24.20;90.60;;;;;;6276715;22;20016;-80
2022/09/04 11:43:06;;;;;;;5.40;3.20;;;24.20;90.50;;;;;;6277285;22;20016;-79
2022/09/04 11:45:37;;;;;;;3.33;2.88;;;24.30;90.80;;;;;;6277760;22;20242;-80
2022/09/04 11:48:41;;;;;;;4.53;2.90;;;24.40;90.80;;;;;;6251798;22;20012;-80
2022/09/04 11:51:46;;;;;;;4.90;3.00;;;24.40;90.80;;;;;;6252080;22;20087;-80
2022/09/04 11:54:33;;;;;;;3.92;3.17;;;24.40;90.80;;;;;;6250880;22;20054;-80
2022/09/04 11:57:17;;;;;;;6.65;3.15;;;24.50;90.60;;;;;;6277598;22;20011;-80
2022/09/04 12:00:08;;;;;;;4.93;3.20;;;24.60;90.40;;;;;;6251311;22;20023;-81
2022/09/04 12:03:14;;;;;;;4.40;2.83;;;24.60;90.00;;;;;;6249951;22;20113;-80
2022/09/04 12:06:06;;;;;;;4.35;2.80;;;24.70;90.20;;;;;;6275562;22;20107;-80
2022/09/04 12:09:20;;;;;;;2.85;2.53;;;24.80;90.20;;;;;;6251046;22;20066;-80
2022/09/04 12:12:10;;;;;;;4.35;2.65;;;24.80;90.20;;;;;;6145617;22;20009;-80
2022/09/04 12:15:02;;;;;;;3.60;2.50;;;24.90;90.40;;;;;;6252437;22;20008;-80
2022/09/04 12:17:47;;;;;;;3.47;3.03;;;24.90;90.20;;;;;;6276853;22;20023;-80
2022/09/04 12:20:48;;;;;;;8.27;3.50;;;25.00;90.00;;;;;;6277160;22;20082;-80
2022/09/04 12:23:46;;;;;;;5.15;3.08;;;25.10;89.60;;;;;;6251272;22;20055;-80
2022/09/04 12:26:43;;;;;;;6.68;3.13;;;25.10;89.20;;;;;;6277013;22;20023;-80
2022/09/04 12:29:30;;;;;;;5.45;3.30;;;25.20;89.00;;;;;;6276043;22;20069;-80
2022/09/04 12:32:14;;;;;;;4.60;3.65;;;25.20;88.70;;;;;;6249236;22;20148;-80
2022/09/04 12:35:17;;;;;;;4.35;3.10;;;25.30;88.20;;;;;;6277450;22;20044;-80
2022/09/04 12:38:14;;;;;;;5.68;3.50;;;25.30;88.30;;;;;;6251624;22;20133;-80
2022/09/04 12:41:04;;;;;;;4.32;3.10;;;25.40;87.70;;;;;;6252041;22;20011;-80
2022/09/04 12:44:14;;;;;;;3.88;3.35;;;25.40;87.00;;;;;;6277762;22;20438;-80
2022/09/04 12:47:15;;;;;;;7.93;3.03;;;25.40;86.40;;;;;;6186721;22;20016;-80
2022/09/04 12:49:58;;;;;;;4.68;3.00;;;25.40;87.20;;;;;;6251669;22;20011;-80
2022/09/04 12:52:39;;;;;;;3.50;2.85;;;25.50;87.40;;;;;;6277140;22;20024;-81
2022/09/04 12:55:30;;;;;;;6.63;3.28;;;25.50;87.00;;;;;;6277738;22;20016;-80
2022/09/04 12:58:20;;;;;;;5.47;3.55;;;25.60;86.70;;;;;;6252029;22;20011;-80
2022/09/04 13:01:14;;;;;;;5.50;3.30;;;25.70;86.90;;;;;;6276495;22;20007;-80
2022/09/04 13:04:15;;;;;;;4.03;3.03;;;25.70;85.90;;;;;;6252130;22;20158;-80
2022/09/04 13:07:21;;;;;;;7.22;3.10;;;25.70;86.50;;;;;;6260424;22;20057;-81
2022/09/04 13:10:31;;;;;;;5.13;3.38;;;25.70;87.10;;;;;;6251557;22;20015;-81
2022/09/04 13:13:03;;;;;;;3.15;2.67;;;25.70;86.90;;;;;;6250912;22;20146;-81
2022/09/04 13:15:52;;;;;;;4.50;3.17;;;25.70;88.40;;;;;;6250697;22;20012;-81
2022/09/04 13:18:40;;;;;;;4.82;3.25;;;26.20;87.90;;;;;;6251007;22;20011;-80
2022/09/04 13:21:43;;;;;;;3.83;3.00;;;26.60;88.10;;;;;;6251769;22;20019;-80
2022/09/04 13:24:34;;;;;;;4.07;3.33;;;27.10;87.10;;;;;;6276787;22;20062;-80
2022/09/04 13:27:06;;;;;;;5.03;2.90;;;27.60;83.80;;;;;;6251843;22;20345;-81
2022/09/04 13:30:07;;;;;;;9.18;2.97;;;28.00;83.30;;;;;;6251225;22;20016;-81
2022/09/04 13:32:48;;;;;;;6.57;3.00;;;28.30;84.00;;;;;;6223221;22;20077;-80
2022/09/04 13:35:54;;;;;;;3.95;3.45;;;28.50;83.40;;;;;;6252053;22;20014;-80
2022/09/04 13:38:44;;;;;;;7.15;4.00;;;28.70;82.20;;;;;;6173723;22;20144;-81
2022/09/04 13:41:49;;;;;;;7.55;3.22;;;28.60;80.70;;;;;;6254700;22;20046;-80
2022/09/04 13:44:30;;;;;;;4.93;3.00;;;28.50;80.30;;;;;;6275772;22;20024;-80
2022/09/04 13:47:05;;;;;;;3.88;2.85;;;28.30;81.20;;;;;;6280160;22;20496;-80
2022/09/04 13:49:46;;;;;;;6.22;2.83;;;28.40;80.20;;;;;;6254828;22;20512;-80
2022/09/04 13:52:55;;;;;;;3.95;2.65;;;28.30;79.20;;;;;;6279687;22;20019;-81
2022/09/04 13:55:37;;;;;;;4.60;2.90;;;28.10;79.00;;;;;;6161977;23;20015;-80
2022/09/04 13:58:12;;;;;;;3.15;2.72;;;28.00;79.60;;;;;;6162894;23;20055;-80
2022/09/04 14:00:50;;;;;;;4.68;2.83;;;27.80;79.50;;;;;;6215478;22;20039;-81
2022/09/04 14:03:40;;;;;;;4.40;2.60;;;27.70;80.90;;;;;;6253948;22;20012;-80
2022/09/04 14:06:09;;;;;;;2.90;2.60;;;27.60;81.00;;;;;;6278861;22;20023;-80
2022/09/04 14:08:38;;;;;;;3.40;2.63;;;27.50;81.80;;;;;;6253593;22;20015;-80
2022/09/04 14:11:10;;;;;;;4.35;2.65;;;27.40;81.20;;;;;;6279270;22;20019;-80
2022/09/04 14:14:10;;;;;;;4.93;2.90;;;27.40;81.20;;;;;;6253622;22;20023;-80
2022/09/04 14:16:38;;;;;;;5.82;2.70;;;27.30;81.80;;;;;;6253292;22;20014;-80
2022/09/04 14:19:31;;;;;;;3.88;3.13;;;27.20;81.70;;;;;;6252645;22;20073;-80
2022/09/04 14:22:24;;;;;;;6.28;3.03;;;27.10;81.10;;;;;;6252932;22;20410;-80
2022/09/04 14:25:27;;;;;;;3.53;2.70;;;27.00;81.40;;;;;;6251622;22;20015;-80
2022/09/04 14:28:30;;;;;;;4.80;2.95;;;27.00;82.00;;;;;;6252386;22;20073;-80
2022/09/04 14:31:08;;;;;;;6.32;3.45;;;26.80;81.10;;;;;;6277559;22;20015;-80